Olivia, MN

2:58 PM CDT on June 27, 2017 (GMT -0500)
Olivia Regional

Weather History for KOVL - September, 2013

Change the Weather History Date:

Friday, September 6, 2013

  Actual Average (KRWF) Record (KRWF)
Temperature  
Mean Temperature 80 °F -  
Max Temperature 91 °F 79 °F 101 °F (1976)
Min Temperature 68 °F 55 °F 33 °F (1996)
Cooling Degree Days 14    
Growing Degree Days 30 (Base 50)    
Moisture  
Dew Point 65 °F    
Average Humidity 64    
Maximum Humidity 88    
Minimum Humidity 40    
Precipitation  
Precipitation 0.00 in - - ()
Sea Level Pressure  
Sea Level Pressure 29.96 in    
Wind  
Wind Speed 8 mph (South)    
Max Wind Speed 16 mph    
Max Gust Speed 23 mph    
Visibility 10 miles    
Events      
Averages and records for this station are not official NWS values.
T = Trace of Precipitation, MM = Missing Value Source: NWS Daily Summary

Daily Weather History Graph

Daily Weather History Graph

Search for Another Location

Airport or City:

Trip Planner

Search our weather history database for the weather conditions in past years. The results will help you decide how hot, cold, wet, or windy it might be!

Date:

Astronomy

Sep. 06, 2013 Rise Set
Actual Time 6:48 AM CDT 7:47 PM CDT
Civil Twilight 6:18 AM CDT 8:16 PM CDT
Nautical Twilight 5:43 AM CDT 8:52 PM CDT
Astronomical Twilight 5:05 AM CDT 9:29 PM CDT
Moon 8:07 AM CDT (9/6) 8:05 PM CDT (9/6)
Length of Visible Light 13h 58m
Length of Day
12h 58m
New Moon, 2% of the Moon is Illuminated
Sep 6
New Moon
Sep 12
First Quarter
Sep 19
Full
Sep 26
Last Quarter
Oct 4
New

Hourly Weather History & Observations

Time (CDT) Temp. Heat Index Dew Point Humidity Pressure Visibility Wind Dir Wind Speed Gust Speed Precip Events Conditions
12:13 AM 73.4 °F - 62.6 °F 69% 30.07 in 10.0 mi SSE 6.9 mph - N/A   Mostly Cloudy
12:34 AM 71.6 °F - 62.6 °F 73% 30.07 in 10.0 mi SSE 4.6 mph - N/A   Overcast
12:53 AM 71.6 °F - 62.6 °F 73% 30.07 in 10.0 mi SSE 4.6 mph - N/A   Scattered Clouds
1:14 AM 69.8 °F - 62.6 °F 78% 30.07 in 10.0 mi SSE 4.6 mph - N/A   Clear
1:33 AM 69.8 °F - 62.6 °F 78% 30.07 in 10.0 mi South 5.8 mph - N/A   Clear
1:54 AM 69.8 °F - 62.6 °F 78% 30.08 in 10.0 mi SSE 5.8 mph - N/A   Clear
2:14 AM 69.8 °F - 62.6 °F 78% 30.07 in 10.0 mi SSE 5.8 mph - N/A   Scattered Clouds
2:33 AM 69.8 °F - 62.6 °F 78% 30.07 in 10.0 mi SSE 5.8 mph - N/A   Clear
2:54 AM 69.8 °F - 62.6 °F 78% 30.07 in 10.0 mi SSE 6.9 mph - N/A   Clear
3:13 AM 69.8 °F - 62.6 °F 78% 30.06 in 10.0 mi SSE 5.8 mph - N/A   Clear
3:33 AM 68.0 °F - 62.6 °F 83% 30.06 in 10.0 mi SE 5.8 mph - N/A   Clear
3:54 AM 68.0 °F - 60.8 °F 78% 30.06 in 10.0 mi SE 4.6 mph - N/A   Clear
4:14 AM 68.0 °F - 62.6 °F 83% 30.06 in 10.0 mi SE 5.8 mph - N/A   Clear
4:33 AM 68.0 °F - 62.6 °F 83% 30.06 in 10.0 mi SE 8.1 mph - N/A   Scattered Clouds
4:53 AM 69.8 °F - 64.4 °F 83% 30.05 in 10.0 mi SE 8.1 mph - N/A   Mostly Cloudy
5:13 AM 69.8 °F - 64.4 °F 83% 30.05 in 10.0 mi SSE 8.1 mph - N/A   Scattered Clouds
5:34 AM 69.8 °F - 64.4 °F 83% 30.05 in 10.0 mi SSE 8.1 mph - N/A   Scattered Clouds
5:53 AM 69.8 °F - 62.6 °F 78% 30.04 in 10.0 mi SSE 9.2 mph - N/A   Clear
6:14 AM 69.8 °F - 62.6 °F 78% 30.04 in 10.0 mi SSE 8.1 mph - N/A   Clear
6:33 AM 69.8 °F - 64.4 °F 83% 30.04 in 10.0 mi SSE 8.1 mph - N/A   Clear
6:54 AM 69.8 °F - 64.4 °F 83% 30.04 in 10.0 mi SSE 8.1 mph - N/A   Mostly Cloudy
7:13 AM 69.8 °F - 62.6 °F 78% 30.04 in 10.0 mi SSE 8.1 mph - N/A   Overcast
7:33 AM 69.8 °F - 62.6 °F 78% 30.02 in 10.0 mi SSE 9.2 mph - N/A   Mostly Cloudy
7:54 AM 69.8 °F - 62.6 °F 78% 30.01 in 10.0 mi SSE 9.2 mph - N/A   Scattered Clouds
8:13 AM 71.6 °F - 62.6 °F 73% 30.01 in 10.0 mi SSE 11.5 mph - N/A   Clear
8:34 AM 71.6 °F - 62.6 °F 73% 30.01 in 10.0 mi SSE 9.2 mph - N/A   Clear
8:54 AM 73.4 °F - 62.6 °F 69% 30.00 in 10.0 mi South 9.2 mph 18.4 mph N/A   Clear
9:13 AM 73.4 °F - 62.6 °F 69% 30.00 in 10.0 mi South 10.4 mph 17.3 mph N/A   Clear
9:34 AM 77.0 °F - 62.6 °F 61% 29.99 in 10.0 mi South 12.7 mph 18.4 mph N/A   Clear
9:54 AM 77.0 °F - 62.6 °F 61% 29.99 in 10.0 mi South 11.5 mph 20.7 mph N/A   Clear
10:14 AM 78.8 °F - 62.6 °F 57% 29.99 in 10.0 mi South 15.0 mph - N/A   Clear
10:34 AM 78.8 °F - 62.6 °F 57% 29.98 in 10.0 mi South 13.8 mph 19.6 mph N/A   Clear
10:54 AM 80.6 °F 81.8 °F 62.6 °F 54% 29.98 in 10.0 mi South 13.8 mph 17.3 mph N/A   Clear
11:14 AM 80.6 °F 81.8 °F 62.6 °F 54% 29.97 in 10.0 mi South 12.7 mph - N/A   Clear
11:34 AM 82.4 °F 83.4 °F 62.6 °F 51% 29.97 in 10.0 mi South 11.5 mph 17.3 mph N/A   Clear
11:54 AM 84.2 °F 85.0 °F 62.6 °F 48% 29.96 in 10.0 mi South 12.7 mph - N/A   Clear
12:13 PM 87.8 °F 89.4 °F 64.4 °F 46% 29.95 in 10.0 mi South 11.5 mph 16.1 mph N/A   Clear
12:33 PM 89.6 °F 91.1 °F 64.4 °F 43% 29.94 in 10.0 mi South 12.7 mph 17.3 mph N/A   Clear
12:54 PM 89.6 °F 91.1 °F 64.4 °F 43% 29.93 in 10.0 mi South 15.0 mph 20.7 mph N/A   Clear
1:13 PM 89.6 °F 91.1 °F 64.4 °F 43% 29.93 in 10.0 mi South 12.7 mph 19.6 mph N/A   Clear
1:34 PM 89.6 °F 90.1 °F 62.6 °F 40% 29.92 in 10.0 mi South 15.0 mph 20.7 mph N/A   Clear
1:53 PM 89.6 °F 90.1 °F 62.6 °F 40% 29.92 in 10.0 mi South 15.0 mph 23.0 mph N/A   Clear
2:13 PM 91.4 °F 93.2 °F 64.4 °F 41% 29.91 in 10.0 mi South 12.7 mph 20.7 mph N/A   Clear
2:34 PM 91.4 °F 93.2 °F 64.4 °F 41% 29.90 in 10.0 mi South 15.0 mph 23.0 mph N/A   Clear
2:53 PM 91.4 °F 93.2 °F 64.4 °F 41% 29.90 in 10.0 mi South 16.1 mph 20.7 mph N/A   Clear
3:13 PM 91.4 °F 93.2 °F 64.4 °F 41% 29.89 in 10.0 mi SSW 12.7 mph 19.6 mph N/A   Clear
3:34 PM 91.4 °F 93.2 °F 64.4 °F 41% 29.89 in 10.0 mi South 13.8 mph - N/A   Clear
3:54 PM 91.4 °F 93.2 °F 64.4 °F 41% 29.88 in 10.0 mi SSW 15.0 mph 21.9 mph N/A   Clear
4:13 PM 91.4 °F 93.2 °F 64.4 °F 41% 29.87 in 10.0 mi SSW 12.7 mph - N/A   Clear
4:33 PM 91.4 °F 94.0 °F 66.2 °F 43% 29.87 in 10.0 mi South 11.5 mph 16.1 mph N/A   Clear
4:53 PM 91.4 °F 93.2 °F 64.4 °F 41% 29.86 in 10.0 mi SSW 9.2 mph 19.6 mph N/A   Clear
5:14 PM 91.4 °F 94.0 °F 66.2 °F 43% 29.86 in 10.0 mi South 10.4 mph 16.1 mph N/A   Clear
5:33 PM 89.6 °F 91.1 °F 64.4 °F 43% 29.86 in 10.0 mi SSW 12.7 mph 17.3 mph N/A   Clear
5:53 PM 89.6 °F 92.2 °F 66.2 °F 46% 29.86 in 10.0 mi SSW 9.2 mph - N/A   Clear
6:14 PM 89.6 °F 94.7 °F 69.8 °F 52% 29.86 in 10.0 mi SW 5.8 mph - N/A   Clear
6:34 PM 87.8 °F 90.4 °F 66.2 °F 49% 29.86 in 10.0 mi SSW 6.9 mph - N/A   Clear
6:53 PM 86.0 °F 89.4 °F 68.0 °F 55% 29.86 in 10.0 mi SSW 3.5 mph - N/A   Clear
7:14 PM 82.4 °F 85.4 °F 68.0 °F 62% 29.86 in 7.0 mi South 3.5 mph - N/A   Clear
7:34 PM 82.4 °F 85.4 °F 68.0 °F 62% 29.86 in 10.0 mi South 4.6 mph - N/A   Clear
7:53 PM 80.6 °F 83.2 °F 68.0 °F 65% 29.85 in 10.0 mi South 4.6 mph - N/A   Clear
8:13 PM 78.8 °F - 68.0 °F 69% 29.86 in 10.0 mi South 4.6 mph - N/A   Clear
8:34 PM 78.8 °F - 68.0 °F 69% 29.86 in 10.0 mi South 4.6 mph - N/A   Clear
8:54 PM 78.8 °F - 68.0 °F 69% 29.86 in 10.0 mi South 5.8 mph - N/A   Clear
9:13 PM 77.0 °F - 66.2 °F 69% 29.87 in 10.0 mi South 4.6 mph - N/A   Clear
9:34 PM 77.0 °F - 68.0 °F 74% 29.87 in 10.0 mi SSW 4.6 mph - N/A   Clear
9:53 PM 73.4 °F - 68.0 °F 83% 29.87 in 10.0 mi South 4.6 mph - N/A   Clear
10:13 PM 77.0 °F - 68.0 °F 74% 29.86 in 10.0 mi SSW 4.6 mph - N/A   Clear
10:34 PM 77.0 °F - 68.0 °F 74% 29.87 in 10.0 mi Calm Calm - N/A   Clear
10:53 PM 75.2 °F - 68.0 °F 78% 29.87 in 10.0 mi SSW 4.6 mph - N/A   Clear
11:14 PM 73.4 °F - 68.0 °F 83% 29.87 in 10.0 mi SW 3.5 mph - N/A   Clear
11:34 PM 73.4 °F - 68.0 °F 83% 29.87 in 10.0 mi Calm Calm - N/A   Clear
11:53 PM 73.4 °F - 69.8 °F 88% 29.87 in 10.0 mi Calm Calm - N/A   Clear